Time;durP1;ratioP1;P1;durP2;ratioP2;P2;SDS_P1;SDS_P2;PMS_P1;PMS_P2;Temp;Humidity;BMP_temperature;BMP_pressure;BME280_temperature;BME280_humidity;BME280_pressure;Samples;Min_cycle;Max_cycle;Signal;HPM_P1;HPM_P2
2021/03/09 00:00:45;;;;;;;42.35;28.88;;;;;;;;;;6297493;28;20041;-75
2021/03/09 00:03:46;;;;;;;40.55;28.00;;;;;;;;;;6295341;28;20132;-75
2021/03/09 00:06:47;;;;;;;42.35;28.00;;;;;;;;;;6302203;28;20074;-75
2021/03/09 00:09:48;;;;;;;41.20;27.73;;;;;;;;;;6299304;28;20084;-75
2021/03/09 00:12:50;;;;;;;40.25;28.92;;;;;;;;;;6303390;28;20063;-74
2021/03/09 00:15:52;;;;;;;41.15;29.00;;;;;;;;;;6302823;28;20052;-76
2021/03/09 00:18:53;;;;;;;43.17;29.23;;;;;;;;;;6300453;28;20108;-75
2021/03/09 00:21:54;;;;;;;41.90;28.83;;;;;;;;;;6305098;28;20105;-74
2021/03/09 00:24:55;;;;;;;43.65;28.63;;;;;;;;;;6304830;28;20050;-75
2021/03/09 00:28:00;;;;;;;41.58;29.92;;;;;;;;;;6297306;28;20048;-75
2021/03/09 00:31:01;;;;;;;41.15;28.50;;;;;;;;;;6301408;28;20064;-75
2021/03/09 00:34:03;;;;;;;40.47;28.65;;;;;;;;;;6304200;28;20051;-76
2021/03/09 00:37:04;;;;;;;44.70;31.20;;;;;;;;;;6296894;28;20052;-75
2021/03/09 00:40:07;;;;;;;44.13;30.23;;;;;;;;;;6299892;28;20040;-76
2021/03/09 00:43:09;;;;;;;41.95;29.23;;;;;;;;;;6296956;28;20056;-76
2021/03/09 00:46:12;;;;;;;47.47;30.30;;;;;;;;;;6297474;28;20048;-77
2021/03/09 00:49:14;;;;;;;54.60;34.67;;;;;;;;;;6299388;28;20136;-76
2021/03/09 00:52:15;;;;;;;62.15;34.55;;;;;;;;;;6302911;28;20051;-76
2021/03/09 00:55:16;;;;;;;70.22;39.83;;;;;;;;;;6295707;28;20545;-76
2021/03/09 00:58:18;;;;;;;47.33;31.75;;;;;;;;;;6298079;28;20041;-75
2021/03/09 01:01:20;;;;;;;41.70;30.30;;;;;;;;;;6297611;28;20458;-75
2021/03/09 01:04:21;;;;;;;42.25;28.40;;;;;;;;;;6300885;28;20057;-75
2021/03/09 01:07:22;;;;;;;40.05;27.83;;;;;;;;;;6301242;28;20056;-75
2021/03/09 01:10:23;;;;;;;44.05;28.75;;;;;;;;;;6296653;28;20052;-75
2021/03/09 01:13:25;;;;;;;45.35;27.70;;;;;;;;;;6296511;28;20053;-75
2021/03/09 01:16:27;;;;;;;44.30;28.80;;;;;;;;;;6296079;28;20538;-75
2021/03/09 01:19:28;;;;;;;38.45;27.55;;;;;;;;;;6296276;28;20113;-76
2021/03/09 01:22:29;;;;;;;40.17;28.50;;;;;;;;;;6300048;28;20056;-75
2021/03/09 01:25:30;;;;;;;40.45;27.60;;;;;;;;;;6298059;28;20068;-75
2021/03/09 01:28:32;;;;;;;38.85;26.85;;;;;;;;;;6296810;28;20051;-75
2021/03/09 01:31:34;;;;;;;38.40;27.77;;;;;;;;;;6297294;28;20057;-75
2021/03/09 01:34:38;;;;;;;42.50;28.13;;;;;;;;;;6301757;28;20052;-77
2021/03/09 01:37:39;;;;;;;48.20;29.95;;;;;;;;;;6299700;28;20040;-75
2021/03/09 01:40:40;;;;;;;41.78;28.33;;;;;;;;;;6296990;28;20607;-75
2021/03/09 01:43:42;;;;;;;43.08;27.55;;;;;;;;;;6301254;28;21750;-75
2021/03/09 01:46:44;;;;;;;38.45;27.02;;;;;;;;;;6304529;28;20394;-75
2021/03/09 01:49:46;;;;;;;40.83;27.40;;;;;;;;;;6303637;28;20067;-75
2021/03/09 01:52:48;;;;;;;42.47;28.95;;;;;;;;;;6295888;28;20044;-75
2021/03/09 01:55:50;;;;;;;42.63;28.13;;;;;;;;;;6296058;28;20056;-75
2021/03/09 01:58:53;;;;;;;42.85;30.23;;;;;;;;;;6300392;28;20045;-75
2021/03/09 02:05:06;;;;;;;42.40;28.67;;;;;;;;;;6232149;28;20064;-71
2021/03/09 02:08:07;;;;;;;46.97;27.90;;;;;;;;;;6246764;28;20045;-72
2021/03/09 02:11:12;;;;;;;39.45;27.48;;;;;;;;;;6243526;28;20045;-72
2021/03/09 02:14:24;;;;;;;39.50;26.92;;;;;;;;;;6247559;28;20454;-73
2021/03/09 02:17:31;;;;;;;43.78;28.30;;;;;;;;;;6242751;28;20045;-72
2021/03/09 02:20:50;;;;;;;40.00;26.67;;;;;;;;;;6243379;28;20472;-72
2021/03/09 02:24:08;;;;;;;44.45;27.73;;;;;;;;;;6245090;28;20125;-79
2021/03/09 02:27:21;;;;;;;48.28;29.30;;;;;;;;;;6243616;28;20068;-72
2021/03/09 02:30:25;;;;;;;43.45;28.65;;;;;;;;;;6238993;28;20052;-74
2021/03/09 02:33:29;;;;;;;41.90;29.02;;;;;;;;;;6253904;28;20120;-74
2021/03/09 02:36:31;;;;;;;42.85;28.73;;;;;;;;;;6249265;28;20049;-72
2021/03/09 02:39:32;;;;;;;48.10;29.77;;;;;;;;;;6250794;28;20061;-74
2021/03/09 02:42:35;;;;;;;44.05;28.95;;;;;;;;;;6250826;28;20137;-72
2021/03/09 02:45:38;;;;;;;42.23;29.40;;;;;;;;;;6252985;28;20045;-73
2021/03/09 02:48:40;;;;;;;47.28;28.55;;;;;;;;;;6251494;28;20051;-72
2021/03/09 02:51:43;;;;;;;43.25;28.55;;;;;;;;;;6250431;28;20145;-71
2021/03/09 02:54:45;;;;;;;45.70;28.98;;;;;;;;;;6244995;28;20049;-72
2021/03/09 02:57:48;;;;;;;44.47;28.95;;;;;;;;;;6240796;28;20103;-72
2021/03/09 03:00:51;;;;;;;50.15;29.13;;;;;;;;;;6245069;28;20443;-72
2021/03/09 03:03:53;;;;;;;43.88;29.15;;;;;;;;;;6235202;28;20121;-73
2021/03/09 03:06:55;;;;;;;42.30;27.95;;;;;;;;;;6213415;28;20058;-72
2021/03/09 03:09:57;;;;;;;43.45;27.50;;;;;;;;;;6212703;28;20133;-72
2021/03/09 03:12:58;;;;;;;47.50;30.00;;;;;;;;;;6220026;28;20060;-73
2021/03/09 03:16:00;;;;;;;45.00;28.48;;;;;;;;;;6223072;28;20076;-72
2021/03/09 03:19:02;;;;;;;43.45;28.30;;;;;;;;;;6220178;28;20125;-72
2021/03/09 03:22:03;;;;;;;43.00;28.95;;;;;;;;;;6223304;28;20125;-72
2021/03/09 03:25:06;;;;;;;45.30;29.27;;;;;;;;;;6217987;28;20148;-75
2021/03/09 03:28:08;;;;;;;44.10;29.55;;;;;;;;;;6217478;28;20049;-80
2021/03/09 03:31:10;;;;;;;50.25;29.70;;;;;;;;;;6216863;28;20056;-72
2021/03/09 03:34:12;;;;;;;45.58;29.58;;;;;;;;;;6216895;28;20508;-77
2021/03/09 03:37:14;;;;;;;44.20;30.00;;;;;;;;;;6218199;28;20516;-72
2021/03/09 03:40:17;;;;;;;44.60;29.88;;;;;;;;;;6213037;28;20125;-79
2021/03/09 03:43:19;;;;;;;43.58;27.35;;;;;;;;;;6215424;28;20509;-73
2021/03/09 03:46:21;;;;;;;46.53;29.80;;;;;;;;;;6217036;28;20137;-72
2021/03/09 03:49:22;;;;;;;47.17;29.50;;;;;;;;;;6214993;28;20128;-72
2021/03/09 03:52:28;;;;;;;41.72;28.17;;;;;;;;;;6213185;28;20477;-71
2021/03/09 03:55:45;;;;;;;44.28;28.55;;;;;;;;;;6217988;28;20057;-71
2021/03/09 03:58:48;;;;;;;39.97;28.45;;;;;;;;;;6211100;28;20482;-72
2021/03/09 04:01:51;;;;;;;44.97;27.77;;;;;;;;;;6217940;28;20419;-72
2021/03/09 04:04:52;;;;;;;39.35;27.23;;;;;;;;;;6237660;28;20052;-72
2021/03/09 04:07:54;;;;;;;45.50;28.35;;;;;;;;;;6240461;28;20044;-72
2021/03/09 04:10:55;;;;;;;42.00;28.90;;;;;;;;;;6235466;28;20124;-71
2021/03/09 04:13:57;;;;;;;43.72;27.98;;;;;;;;;;6242376;28;20536;-71
2021/03/09 04:17:01;;;;;;;44.78;27.73;;;;;;;;;;6240367;28;20135;-70
2021/03/09 04:20:04;;;;;;;44.60;27.95;;;;;;;;;;6244822;28;20698;-78
2021/03/09 04:23:06;;;;;;;45.93;30.70;;;;;;;;;;6245941;28;20041;-70
2021/03/09 04:26:07;;;;;;;47.45;29.35;;;;;;;;;;6238143;28;20586;-71
2021/03/09 04:29:10;;;;;;;42.25;28.42;;;;;;;;;;6239645;28;20403;-71
2021/03/09 04:32:11;;;;;;;42.97;28.90;;;;;;;;;;6246793;28;20057;-71
2021/03/09 04:35:12;;;;;;;44.45;28.63;;;;;;;;;;6247594;28;20137;-71
2021/03/09 04:38:14;;;;;;;42.95;28.25;;;;;;;;;;6245929;28;20140;-71
2021/03/09 04:41:15;;;;;;;44.13;29.52;;;;;;;;;;6246708;28;20120;-72
2021/03/09 04:44:16;;;;;;;45.35;29.70;;;;;;;;;;6243401;28;20056;-71
2021/03/09 04:47:19;;;;;;;43.17;29.67;;;;;;;;;;6244708;28;20148;-71
2021/03/09 04:50:21;;;;;;;44.15;29.95;;;;;;;;;;6239984;28;20048;-72
2021/03/09 04:53:23;;;;;;;46.80;30.67;;;;;;;;;;6242532;28;20048;-71
2021/03/09 04:56:24;;;;;;;47.25;29.55;;;;;;;;;;6237167;28;20054;-71
2021/03/09 04:59:25;;;;;;;45.97;29.38;;;;;;;;;;6240201;28;20048;-72
2021/03/09 05:02:27;;;;;;;42.97;28.38;;;;;;;;;;6231802;28;20113;-71
2021/03/09 05:05:28;;;;;;;47.00;29.42;;;;;;;;;;6243237;28;20049;-70
2021/03/09 05:08:29;;;;;;;47.80;31.08;;;;;;;;;;6244556;28;20124;-71
2021/03/09 05:11:30;;;;;;;45.15;29.60;;;;;;;;;;6242876;28;20053;-72
2021/03/09 05:14:32;;;;;;;48.67;30.52;;;;;;;;;;6237680;28;20091;-73
2021/03/09 05:17:34;;;;;;;43.65;29.55;;;;;;;;;;6238731;28;20052;-71
2021/03/09 05:20:36;;;;;;;48.88;30.00;;;;;;;;;;6241147;28;20551;-71
2021/03/09 05:23:37;;;;;;;44.60;30.77;;;;;;;;;;6240451;28;20527;-72
2021/03/09 05:26:38;;;;;;;50.17;30.05;;;;;;;;;;6235959;28;20137;-76
2021/03/09 05:29:39;;;;;;;52.20;29.77;;;;;;;;;;6237657;28;20045;-72
2021/03/09 05:32:41;;;;;;;49.05;31.15;;;;;;;;;;6242951;28;20079;-75
2021/03/09 05:35:42;;;;;;;49.35;30.27;;;;;;;;;;6245414;28;20128;-79
2021/03/09 05:38:43;;;;;;;45.38;29.33;;;;;;;;;;6244040;28;20506;-71
2021/03/09 05:41:44;;;;;;;48.28;29.70;;;;;;;;;;6243320;28;20052;-71
2021/03/09 05:44:46;;;;;;;46.35;30.23;;;;;;;;;;6248307;28;20046;-73
2021/03/09 05:47:48;;;;;;;50.33;31.73;;;;;;;;;;6252696;28;20052;-70
2021/03/09 05:50:49;;;;;;;48.35;30.27;;;;;;;;;;6256969;28;20132;-71
2021/03/09 05:53:50;;;;;;;47.35;29.80;;;;;;;;;;6260132;28;20143;-72
2021/03/09 05:56:51;;;;;;;46.92;30.98;;;;;;;;;;6243343;28;20037;-72
2021/03/09 05:59:55;;;;;;;46.90;31.20;;;;;;;;;;6242512;28;20647;-71
2021/03/09 06:02:57;;;;;;;48.30;30.87;;;;;;;;;;6236213;28;20056;-71
2021/03/09 06:05:58;;;;;;;44.65;29.80;;;;;;;;;;6245919;28;20480;-72
2021/03/09 06:08:59;;;;;;;46.85;30.55;;;;;;;;;;6247676;28;20128;-71
2021/03/09 06:12:07;;;;;;;47.83;28.92;;;;;;;;;;6248850;28;20514;-71
2021/03/09 06:15:09;;;;;;;45.85;29.60;;;;;;;;;;6238264;28;20041;-78
2021/03/09 06:18:11;;;;;;;45.35;28.67;;;;;;;;;;6240270;28;20136;-71
2021/03/09 06:21:13;;;;;;;45.70;30.33;;;;;;;;;;6242578;28;22979;-71
2021/03/09 06:24:18;;;;;;;46.47;29.45;;;;;;;;;;6238438;28;20053;-71
2021/03/09 06:27:24;;;;;;;45.20;28.05;;;;;;;;;;6239945;28;20049;-71
2021/03/09 06:30:31;;;;;;;48.05;30.15;;;;;;;;;;6239210;28;20148;-71
2021/03/09 06:33:33;;;;;;;42.63;27.73;;;;;;;;;;6240646;28;20157;-83
2021/03/09 06:36:34;;;;;;;42.33;29.98;;;;;;;;;;6240552;28;20136;-76
2021/03/09 06:39:50;;;;;;;40.70;27.60;;;;;;;;;;6241345;28;20721;-72
2021/03/09 06:42:51;;;;;;;42.88;28.02;;;;;;;;;;6236017;28;20132;-72
2021/03/09 06:45:52;;;;;;;43.10;27.27;;;;;;;;;;6238041;28;20117;-79
2021/03/09 06:48:55;;;;;;;45.47;29.77;;;;;;;;;;6240262;28;20215;-72
2021/03/09 06:52:12;;;;;;;44.80;26.23;;;;;;;;;;6243167;28;20046;-72
2021/03/09 06:55:13;;;;;;;40.38;28.00;;;;;;;;;;6240231;28;20431;-71
2021/03/09 06:58:14;;;;;;;45.03;27.77;;;;;;;;;;6240487;28;20126;-71
2021/03/09 07:01:16;;;;;;;39.85;27.45;;;;;;;;;;6240221;28;20053;-72
2021/03/09 07:04:24;;;;;;;41.30;26.98;;;;;;;;;;6247025;28;20669;-70
2021/03/09 07:07:30;;;;;;;36.92;26.52;;;;;;;;;;6245047;28;20489;-71
2021/03/09 07:10:31;;;;;;;38.83;27.70;;;;;;;;;;6244612;28;20914;-70
2021/03/09 07:13:33;;;;;;;38.22;25.73;;;;;;;;;;6240926;28;20061;-72
2021/03/09 07:16:35;;;;;;;39.80;26.80;;;;;;;;;;6236323;28;20103;-71
2021/03/09 07:19:40;;;;;;;40.42;26.65;;;;;;;;;;6233891;28;20579;-70
2021/03/09 07:22:42;;;;;;;40.65;26.77;;;;;;;;;;6242929;28;20112;-72
2021/03/09 07:25:44;;;;;;;36.67;26.67;;;;;;;;;;6242939;28;20125;-71
2021/03/09 07:28:47;;;;;;;33.30;25.27;;;;;;;;;;6238591;28;20048;-72
2021/03/09 07:31:50;;;;;;;38.88;27.85;;;;;;;;;;6236026;28;20204;-71
2021/03/09 07:34:52;;;;;;;38.58;27.17;;;;;;;;;;6245217;28;20129;-72
2021/03/09 07:37:53;;;;;;;37.38;26.42;;;;;;;;;;6245784;28;20120;-71
2021/03/09 07:40:55;;;;;;;44.58;27.20;;;;;;;;;;6246444;28;20248;-72
2021/03/09 07:43:56;;;;;;;39.30;27.85;;;;;;;;;;6239881;28;20132;-72
2021/03/09 07:46:59;;;;;;;37.50;26.13;;;;;;;;;;6244153;28;20124;-71
2021/03/09 07:50:01;;;;;;;37.28;27.08;;;;;;;;;;6240837;28;20166;-72
2021/03/09 07:53:10;;;;;;;39.80;26.00;;;;;;;;;;6241133;28;20110;-72
2021/03/09 07:56:13;;;;;;;39.03;27.30;;;;;;;;;;6241546;28;20060;-72
2021/03/09 07:59:15;;;;;;;38.13;28.17;;;;;;;;;;6235736;28;20045;-73
2021/03/09 08:02:16;;;;;;;39.13;29.13;;;;;;;;;;6236214;28;20065;-72
2021/03/09 08:05:19;;;;;;;43.65;30.65;;;;;;;;;;6247553;28;20187;-72
2021/03/09 08:08:43;;;;;;;40.77;29.30;;;;;;;;;;6236376;28;20045;-75
2021/03/09 08:11:44;;;;;;;42.00;29.45;;;;;;;;;;6232117;28;20128;-71
2021/03/09 08:14:45;;;;;;;43.00;30.77;;;;;;;;;;6236306;28;20191;-74
2021/03/09 08:17:46;;;;;;;42.85;30.27;;;;;;;;;;6236268;28;20049;-72
2021/03/09 08:20:52;;;;;;;42.15;30.08;;;;;;;;;;6242274;28;20508;-73
2021/03/09 08:23:56;;;;;;;46.17;31.13;;;;;;;;;;6234800;28;20057;-71
2021/03/09 08:26:57;;;;;;;43.65;30.55;;;;;;;;;;6238010;28;20428;-71
2021/03/09 08:30:35;;;;;;;46.60;31.63;;;;;;;;;;6240420;28;20049;-71
2021/03/09 08:33:37;;;;;;;46.55;32.85;;;;;;;;;;6241518;28;20080;-72
2021/03/09 08:36:39;;;;;;;50.72;33.75;;;;;;;;;;6241499;28;20132;-71
2021/03/09 08:40:05;;;;;;;48.20;34.08;;;;;;;;;;6241502;28;20053;-74
2021/03/09 08:43:12;;;;;;;50.60;34.22;;;;;;;;;;6242062;28;20073;-71
2021/03/09 08:46:14;;;;;;;51.92;35.22;;;;;;;;;;6243657;28;20121;-73
2021/03/09 08:49:43;;;;;;;47.00;32.08;;;;;;;;;;6240860;28;20042;-71
2021/03/09 08:52:45;;;;;;;44.13;32.85;;;;;;;;;;6249574;28;20088;-71
2021/03/09 08:55:54;;;;;;;46.97;34.90;;;;;;;;;;6240673;28;20069;-71
2021/03/09 08:58:55;;;;;;;43.47;31.92;;;;;;;;;;6241949;28;20125;-71
2021/03/09 09:02:07;;;;;;;40.45;31.73;;;;;;;;;;6237013;28;20046;-70
2021/03/09 09:05:10;;;;;;;45.83;32.47;;;;;;;;;;6237048;28;20046;-72
2021/03/09 09:08:18;;;;;;;41.92;32.78;;;;;;;;;;6240937;28;20073;-72
2021/03/09 09:11:26;;;;;;;43.83;31.13;;;;;;;;;;6238586;28;20132;-71
2021/03/09 09:14:28;;;;;;;38.13;30.42;;;;;;;;;;6238694;28;20152;-73
2021/03/09 09:17:29;;;;;;;42.42;30.50;;;;;;;;;;6242157;28;20132;-71
2021/03/09 09:20:32;;;;;;;40.83;30.83;;;;;;;;;;6246095;28;20053;-81
2021/03/09 09:23:36;;;;;;;45.70;31.48;;;;;;;;;;6247473;28;20124;-73
2021/03/09 09:26:37;;;;;;;;;;;;;;;;;;6240458;28;20045;-71
2021/03/09 09:29:51;;;;;;;41.20;31.27;;;;;;;;;;6238058;28;19932;-74
2021/03/09 09:32:54;;;;;;;38.73;31.17;;;;;;;;;;6233837;28;20204;-71
2021/03/09 09:35:56;;;;;;;42.47;29.85;;;;;;;;;;6225288;28;21005;-76
2021/03/09 09:38:57;;;;;;;39.22;28.88;;;;;;;;;;6239340;28;20065;-74
2021/03/09 09:41:59;;;;;;;42.95;30.30;;;;;;;;;;6239088;28;20045;-71
2021/03/09 09:45:00;;;;;;;41.72;29.73;;;;;;;;;;6232786;28;20781;-71
2021/03/09 09:48:02;;;;;;;41.28;29.92;;;;;;;;;;6239211;28;20141;-78
2021/03/09 09:51:04;;;;;;;36.60;29.80;;;;;;;;;;6232922;28;20083;-71
2021/03/09 09:54:11;;;;;;;39.25;29.63;;;;;;;;;;6234446;28;20168;-71
2021/03/09 09:57:13;;;;;;;35.38;28.08;;;;;;;;;;6231400;28;23282;-73
2021/03/09 10:00:16;;;;;;;37.05;28.63;;;;;;;;;;6235289;28;20044;-77
2021/03/09 10:03:17;;;;;;;34.75;28.00;;;;;;;;;;6230896;28;20045;-71
2021/03/09 10:06:19;;;;;;;33.67;26.27;;;;;;;;;;6219640;28;20107;-71
2021/03/09 10:09:22;;;;;;;31.42;25.42;;;;;;;;;;6213922;28;20058;-72
2021/03/09 10:12:33;;;;;;;34.65;26.38;;;;;;;;;;6216886;28;20112;-72
2021/03/09 10:15:47;;;;;;;37.13;27.52;;;;;;;;;;6212905;28;20064;-75
2021/03/09 10:18:51;;;;;;;30.75;27.08;;;;;;;;;;6213161;28;20050;-83
2021/03/09 10:21:54;;;;;;;33.00;26.15;;;;;;;;;;6215652;28;20237;-72
2021/03/09 10:25:11;;;;;;;32.60;25.53;;;;;;;;;;6214720;28;20064;-73
2021/03/09 10:28:13;;;;;;;38.92;28.90;;;;;;;;;;6209875;28;20607;-70
2021/03/09 10:31:14;;;;;;;32.15;27.45;;;;;;;;;;6208657;28;20088;-72
2021/03/09 10:34:16;;;;;;;31.27;24.95;;;;;;;;;;6214140;28;20176;-76
2021/03/09 10:37:18;;;;;;;30.10;25.45;;;;;;;;;;6215478;28;20077;-75
2021/03/09 10:40:19;;;;;;;28.38;23.42;;;;;;;;;;6211914;28;20669;-76
2021/03/09 10:43:38;;;;;;;28.25;25.15;;;;;;;;;;6215339;28;20108;-72
2021/03/09 10:46:40;;;;;;;29.10;23.98;;;;;;;;;;6214605;28;20513;-73
2021/03/09 10:49:41;;;;;;;35.88;26.05;;;;;;;;;;6214337;28;20236;-73
2021/03/09 10:52:42;;;;;;;34.75;23.40;;;;;;;;;;6220909;28;20129;-76
2021/03/09 10:55:43;;;;;;;29.55;21.58;;;;;;;;;;6214260;28;20734;-73
2021/03/09 10:58:45;;;;;;;29.42;23.13;;;;;;;;;;6212337;28;20453;-75
2021/03/09 11:01:46;;;;;;;32.63;26.20;;;;;;;;;;6218042;28;20053;-73
2021/03/09 11:04:47;;;;;;;29.98;24.08;;;;;;;;;;6220566;28;20077;-73
2021/03/09 11:07:48;;;;;;;27.15;23.63;;;;;;;;;;6216696;28;20180;-76
2021/03/09 11:10:51;;;;;;;31.38;24.88;;;;;;;;;;6217079;28;20536;-74
2021/03/09 11:13:53;;;;;;;29.27;24.00;;;;;;;;;;6219082;28;20057;-78
2021/03/09 11:16:54;;;;;;;28.20;23.83;;;;;;;;;;6213576;28;20057;-73
2021/03/09 11:19:55;;;;;;;26.13;23.42;;;;;;;;;;6214378;28;20045;-74
2021/03/09 11:22:56;;;;;;;26.55;23.73;;;;;;;;;;6222583;28;20167;-72
2021/03/09 11:25:57;;;;;;;30.95;24.60;;;;;;;;;;6220233;28;20144;-75
2021/03/09 11:28:59;;;;;;;29.58;24.67;;;;;;;;;;6214766;28;20146;-73
2021/03/09 11:32:00;;;;;;;28.40;25.48;;;;;;;;;;6216431;28;20045;-73
2021/03/09 11:35:01;;;;;;;29.65;25.75;;;;;;;;;;6215327;28;20046;-73
2021/03/09 11:38:02;;;;;;;30.20;26.33;;;;;;;;;;6218444;28;20124;-73
2021/03/09 11:41:03;;;;;;;27.17;24.27;;;;;;;;;;6222361;28;20068;-73
2021/03/09 11:44:06;;;;;;;29.88;22.90;;;;;;;;;;6213381;28;20181;-73
2021/03/09 11:47:08;;;;;;;24.58;21.95;;;;;;;;;;6215293;28;20176;-73
2021/03/09 11:50:13;;;;;;;27.88;22.90;;;;;;;;;;6219106;28;20457;-73
2021/03/09 11:53:14;;;;;;;25.77;22.45;;;;;;;;;;6211769;28;20413;-73
2021/03/09 11:56:15;;;;;;;22.42;20.05;;;;;;;;;;6212360;28;20080;-73
2021/03/09 11:59:17;;;;;;;24.23;18.98;;;;;;;;;;6210885;28;20121;-75
2021/03/09 12:02:18;;;;;;;24.35;20.20;;;;;;;;;;6215246;28;20082;-73
2021/03/09 12:05:20;;;;;;;30.08;26.88;;;;;;;;;;6214326;28;20133;-74
2021/03/09 12:08:21;;;;;;;32.80;25.75;;;;;;;;;;6215850;28;20076;-74
2021/03/09 12:11:22;;;;;;;30.08;24.05;;;;;;;;;;6212502;28;20053;-75
2021/03/09 12:14:24;;;;;;;30.50;23.80;;;;;;;;;;6211109;28;20073;-79
2021/03/09 12:17:25;;;;;;;26.92;23.17;;;;;;;;;;6213810;28;20543;-74
2021/03/09 12:20:26;;;;;;;25.58;21.63;;;;;;;;;;6218910;28;20611;-76
2021/03/09 12:23:28;;;;;;;27.20;22.83;;;;;;;;;;6216345;28;20042;-76
2021/03/09 12:26:32;;;;;;;26.50;23.38;;;;;;;;;;6215214;28;20061;-76
2021/03/09 12:29:35;;;;;;;30.85;23.48;;;;;;;;;;6205928;28;20133;-75
2021/03/09 12:32:36;;;;;;;26.80;23.20;;;;;;;;;;6213749;28;20345;-75
2021/03/09 12:35:38;;;;;;;24.00;21.38;;;;;;;;;;6222454;28;20049;-79
2021/03/09 12:38:39;;;;;;;31.08;22.35;;;;;;;;;;6219938;28;21278;-78
2021/03/09 12:41:40;;;;;;;26.20;22.05;;;;;;;;;;6219596;28;20050;-83
2021/03/09 12:44:42;;;;;;;26.83;22.08;;;;;;;;;;6215509;28;20144;-77
2021/03/09 12:47:43;;;;;;;28.15;22.80;;;;;;;;;;6216641;28;20132;-75
2021/03/09 12:50:45;;;;;;;27.48;22.73;;;;;;;;;;6211949;28;20128;-75
2021/03/09 12:53:46;;;;;;;26.13;21.83;;;;;;;;;;6217492;28;20093;-77
2021/03/09 12:56:47;;;;;;;25.00;20.67;;;;;;;;;;6216727;28;20180;-77
2021/03/09 12:59:49;;;;;;;27.52;22.88;;;;;;;;;;6215599;28;20053;-79
2021/03/09 13:02:50;;;;;;;26.83;21.83;;;;;;;;;;6225021;28;20041;-74
2021/03/09 13:05:51;;;;;;;23.90;20.73;;;;;;;;;;6238966;28;20460;-74
2021/03/09 13:08:54;;;;;;;26.38;21.23;;;;;;;;;;6242784;28;20516;-75
2021/03/09 13:11:55;;;;;;;24.00;20.92;;;;;;;;;;6241972;28;20053;-75
2021/03/09 13:14:57;;;;;;;25.00;20.55;;;;;;;;;;6240315;28;20546;-75
2021/03/09 13:17:59;;;;;;;22.92;20.40;;;;;;;;;;6240881;28;20046;-80
2021/03/09 13:21:00;;;;;;;23.05;20.38;;;;;;;;;;6242053;28;20049;-75
2021/03/09 13:24:02;;;;;;;23.67;20.98;;;;;;;;;;6243270;28;20501;-75
2021/03/09 13:27:03;;;;;;;22.73;20.25;;;;;;;;;;6245947;28;20073;-76
2021/03/09 13:30:07;;;;;;;21.05;18.85;;;;;;;;;;6250586;28;20128;-75
2021/03/09 13:33:08;;;;;;;23.90;19.30;;;;;;;;;;6238106;28;20211;-75
2021/03/09 13:36:10;;;;;;;23.00;19.02;;;;;;;;;;6241904;28;20120;-74
2021/03/09 13:39:11;;;;;;;21.55;18.65;;;;;;;;;;6246347;28;20073;-75
2021/03/09 13:42:12;;;;;;;21.38;18.25;;;;;;;;;;6242293;28;20136;-76
2021/03/09 13:45:18;;;;;;;19.88;17.80;;;;;;;;;;6245403;28;20049;-75
2021/03/09 13:48:19;;;;;;;20.92;18.63;;;;;;;;;;6237182;28;20091;-77
2021/03/09 13:51:20;;;;;;;20.40;17.88;;;;;;;;;;6233228;28;20604;-77
2021/03/09 13:54:21;;;;;;;20.02;16.95;;;;;;;;;;6240193;28;20050;-77
2021/03/09 13:57:22;;;;;;;20.58;17.77;;;;;;;;;;6247425;28;20037;-75
2021/03/09 14:00:25;;;;;;;21.80;17.45;;;;;;;;;;6245109;28;20065;-76
2021/03/09 14:03:26;;;;;;;19.23;16.90;;;;;;;;;;6236557;28;20140;-76
2021/03/09 14:06:28;;;;;;;21.83;17.33;;;;;;;;;;6246004;28;20546;-80
2021/03/09 14:09:29;;;;;;;19.73;16.03;;;;;;;;;;6240714;28;20049;-76
2021/03/09 14:12:31;;;;;;;20.40;15.60;;;;;;;;;;6243643;28;20045;-77
2021/03/09 14:15:33;;;;;;;20.45;15.15;;;;;;;;;;6237036;28;20057;-77
2021/03/09 14:18:34;;;;;;;21.70;15.00;;;;;;;;;;6242164;28;20077;-76
2021/03/09 14:21:35;;;;;;;16.20;11.48;;;;;;;;;;6243245;28;20041;-79
2021/03/09 14:24:37;;;;;;;18.15;11.30;;;;;;;;;;6241402;28;20111;-77
2021/03/09 14:27:38;;;;;;;15.55;11.65;;;;;;;;;;6238755;28;20074;-76
2021/03/09 14:30:41;;;;;;;17.55;13.20;;;;;;;;;;6244821;28;20499;-76
2021/03/09 14:33:42;;;;;;;17.02;12.77;;;;;;;;;;6250590;28;20128;-77
2021/03/09 14:36:43;;;;;;;14.38;12.27;;;;;;;;;;6241543;28;20080;-78
2021/03/09 14:39:44;;;;;;;16.05;10.82;;;;;;;;;;6244508;28;20057;-77
2021/03/09 14:42:45;;;;;;;14.63;11.98;;;;;;;;;;6247337;28;20072;-76
2021/03/09 14:45:47;;;;;;;18.63;13.50;;;;;;;;;;6246855;28;20534;-77
2021/03/09 14:48:48;;;;;;;14.63;12.30;;;;;;;;;;6241594;28;20057;-79
2021/03/09 14:51:50;;;;;;;16.88;11.75;;;;;;;;;;6249992;28;20083;-79
2021/03/09 14:54:51;;;;;;;15.30;11.98;;;;;;;;;;6243894;28;20443;-78
2021/03/09 14:57:52;;;;;;;14.50;11.18;;;;;;;;;;6242865;28;20511;-78
2021/03/09 15:00:54;;;;;;;17.27;11.70;;;;;;;;;;6241006;28;20049;-78
2021/03/09 15:03:56;;;;;;;14.45;11.88;;;;;;;;;;6241028;28;20485;-77
2021/03/09 15:06:57;;;;;;;14.68;12.15;;;;;;;;;;6237654;28;20080;-77
2021/03/09 15:09:59;;;;;;;14.57;11.75;;;;;;;;;;6238253;28;20061;-78
2021/03/09 15:13:00;;;;;;;18.08;12.38;;;;;;;;;;6248598;28;20494;-77
2021/03/09 15:16:02;;;;;;;16.85;12.15;;;;;;;;;;6247532;28;20139;-77
2021/03/09 15:19:03;;;;;;;15.55;12.07;;;;;;;;;;6238573;28;20513;-76
2021/03/09 15:22:04;;;;;;;15.77;12.70;;;;;;;;;;6234071;28;20046;-76
2021/03/09 15:25:07;;;;;;;18.45;12.95;;;;;;;;;;6240116;28;20075;-76
2021/03/09 15:28:08;;;;;;;15.52;12.00;;;;;;;;;;6237118;28;20548;-75
2021/03/09 15:31:11;;;;;;;16.60;13.00;;;;;;;;;;6236333;28;20037;-75
2021/03/09 15:34:12;;;;;;;18.98;13.05;;;;;;;;;;6237606;28;20575;-74
2021/03/09 15:37:13;;;;;;;15.23;12.75;;;;;;;;;;6245560;28;20063;-76
2021/03/09 15:40:16;;;;;;;16.88;12.00;;;;;;;;;;6244981;28;20128;-72
2021/03/09 15:43:17;;;;;;;29.65;12.75;;;;;;;;;;6241838;28;20057;-77
2021/03/09 15:46:19;;;;;;;18.20;13.15;;;;;;;;;;6249743;28;20057;-77
2021/03/09 15:49:21;;;;;;;15.50;12.73;;;;;;;;;;6247394;28;20049;-75
2021/03/09 15:52:22;;;;;;;17.23;13.15;;;;;;;;;;6245062;28;20546;-80
2021/03/09 15:55:24;;;;;;;18.02;14.98;;;;;;;;;;6245588;28;20100;-77
2021/03/09 15:58:25;;;;;;;18.75;14.02;;;;;;;;;;6241432;28;20045;-74
2021/03/09 16:01:27;;;;;;;20.00;13.88;;;;;;;;;;6245579;28;20042;-73
2021/03/09 16:04:28;;;;;;;19.30;14.48;;;;;;;;;;6243145;28;20468;-75
2021/03/09 16:07:29;;;;;;;18.95;14.45;;;;;;;;;;6239020;28;20428;-73
2021/03/09 16:10:30;;;;;;;19.00;14.05;;;;;;;;;;6245112;28;20048;-75
2021/03/09 16:13:31;;;;;;;20.05;14.43;;;;;;;;;;6243580;28;20550;-75
2021/03/09 16:16:33;;;;;;;21.15;14.85;;;;;;;;;;6243671;28;20050;-73
2021/03/09 16:19:37;;;;;;;21.80;16.05;;;;;;;;;;6241053;28;20115;-77
2021/03/09 16:22:38;;;;;;;23.63;15.85;;;;;;;;;;6242312;28;20061;-76
2021/03/09 16:25:39;;;;;;;25.85;16.42;;;;;;;;;;6245507;28;20045;-77
2021/03/09 16:28:40;;;;;;;26.50;16.38;;;;;;;;;;6241963;28;20053;-75
2021/03/09 16:31:42;;;;;;;20.98;16.25;;;;;;;;;;6247806;28;20085;-76
2021/03/09 16:34:43;;;;;;;22.63;15.80;;;;;;;;;;6244130;28;20068;-71
2021/03/09 16:37:45;;;;;;;25.42;15.45;;;;;;;;;;6231246;28;20567;-73
2021/03/09 16:40:46;;;;;;;25.67;15.63;;;;;;;;;;6235046;28;20053;-73
2021/03/09 16:43:47;;;;;;;22.35;16.25;;;;;;;;;;6236308;28;20037;-71
2021/03/09 16:46:50;;;;;;;24.25;15.65;;;;;;;;;;6245293;28;20076;-71
2021/03/09 16:49:52;;;;;;;28.63;16.75;;;;;;;;;;6240395;28;20221;-73
2021/03/09 16:52:53;;;;;;;20.52;15.48;;;;;;;;;;6238591;28;20061;-72
2021/03/09 16:55:54;;;;;;;24.98;16.58;;;;;;;;;;6242272;28;20146;-71
2021/03/09 16:58:58;;;;;;;20.40;15.75;;;;;;;;;;6238205;28;20136;-73
2021/03/09 17:02:00;;;;;;;;;;;;;;;;;;6247926;28;20416;-72
2021/03/09 17:05:01;;;;;;;23.98;15.07;;;;;;;;;;6223037;28;20784;-73
2021/03/09 17:08:02;;;;;;;23.10;15.90;;;;;;;;;;6211699;28;20072;-71
2021/03/09 17:11:03;;;;;;;22.85;15.85;;;;;;;;;;6208331;28;20100;-77
2021/03/09 17:14:04;;;;;;;22.02;15.43;;;;;;;;;;6213454;28;20109;-70
2021/03/09 17:17:06;;;;;;;22.85;15.82;;;;;;;;;;6217016;28;20081;-71
2021/03/09 17:20:09;;;;;;;21.83;15.65;;;;;;;;;;6217826;28;20045;-74
2021/03/09 17:23:11;;;;;;;21.30;16.85;;;;;;;;;;6219577;28;20042;-72
2021/03/09 17:26:12;;;;;;;22.90;16.23;;;;;;;;;;6216974;28;20049;-80
2021/03/09 17:29:13;;;;;;;21.50;17.38;;;;;;;;;;6216114;28;20069;-76
2021/03/09 17:32:15;;;;;;;21.95;16.15;;;;;;;;;;6217319;28;20180;-72
2021/03/09 17:35:16;;;;;;;23.13;16.42;;;;;;;;;;6224875;28;20049;-73
2021/03/09 17:38:17;;;;;;;24.33;16.83;;;;;;;;;;6223592;28;20065;-75
2021/03/09 17:41:18;;;;;;;24.02;16.98;;;;;;;;;;6220626;28;20050;-75
2021/03/09 17:44:19;;;;;;;27.98;18.75;;;;;;;;;;6221931;28;20129;-74
2021/03/09 17:47:22;;;;;;;28.00;17.67;;;;;;;;;;6223001;28;20119;-81